createdAt,value
2017-12-16T00:00:12.684Z,86.10
2017-12-16T00:02:46.549Z,86.20
2017-12-16T00:05:21.456Z,86.60
2017-12-16T00:07:55.265Z,86.60
2017-12-16T00:10:29.782Z,86.90
2017-12-16T00:13:03.635Z,86.70
2017-12-16T00:15:37.424Z,87.00
2017-12-16T00:18:11.253Z,87.30
2017-12-16T00:20:45.108Z,87.50
2017-12-16T00:23:18.935Z,87.40
2017-12-16T00:25:52.935Z,87.90
2017-12-16T00:28:26.492Z,88.00
2017-12-16T00:31:00.464Z,87.80
2017-12-16T00:33:34.254Z,87.80
2017-12-16T00:36:07.986Z,87.80
2017-12-16T00:38:42.551Z,86.80
2017-12-16T00:41:16.134Z,86.80
2017-12-16T00:43:50.065Z,86.80
2017-12-16T00:46:23.756Z,86.90
2017-12-16T00:48:57.665Z,87.20
2017-12-16T00:51:31.368Z,87.60
2017-12-16T00:54:05.402Z,88.10
2017-12-16T00:56:39.141Z,88.10
2017-12-16T00:59:12.945Z,88.50
2017-12-16T01:01:46.733Z,88.20
2017-12-16T01:04:20.938Z,88.40
2017-12-16T01:06:54.786Z,88.80
2017-12-16T01:09:28.569Z,89.00
2017-12-16T01:12:02.281Z,89.00
2017-12-16T01:14:36.865Z,89.40
2017-12-16T01:17:10.581Z,89.30
2017-12-16T01:19:44.398Z,89.70
2017-12-16T01:22:18.198Z,89.90
2017-12-16T01:24:52.150Z,90.00
2017-12-16T01:27:25.879Z,90.00
2017-12-16T01:30:00.021Z,90.00
2017-12-16T01:32:33.762Z,89.90
2017-12-16T01:35:19.644Z,89.60
2017-12-16T01:38:05.268Z,89.50
2017-12-16T01:40:39.061Z,89.00
2017-12-16T01:43:12.704Z,88.80
2017-12-16T01:45:46.712Z,89.30
2017-12-16T01:48:20.390Z,88.70
2017-12-16T01:50:54.051Z,88.50
2017-12-16T01:53:28.004Z,88.50
2017-12-16T01:56:02.458Z,87.90
2017-12-16T01:58:36.272Z,87.90
2017-12-16T02:01:10.141Z,88.50
2017-12-16T02:03:44.005Z,87.60
2017-12-16T02:06:17.711Z,87.50
2017-12-16T02:08:51.468Z,87.50
2017-12-16T02:11:25.357Z,87.50
2017-12-16T02:13:59.695Z,87.70
2017-12-16T02:16:33.388Z,87.70
2017-12-16T02:19:07.921Z,87.40
2017-12-16T02:21:41.627Z,87.40
2017-12-16T02:24:15.368Z,87.20
2017-12-16T02:26:49.469Z,87.20
2017-12-16T02:29:23.244Z,87.00
2017-12-16T02:31:57.778Z,86.90
2017-12-16T02:34:31.481Z,86.90
2017-12-16T02:37:05.250Z,86.90
2017-12-16T02:39:39.965Z,87.30
2017-12-16T02:42:13.928Z,87.30
2017-12-16T02:44:47.612Z,87.50
2017-12-16T02:47:21.769Z,87.20
2017-12-16T02:49:55.526Z,87.20
2017-12-16T02:52:29.385Z,87.10
2017-12-16T02:55:03.940Z,87.20
2017-12-16T02:57:37.988Z,86.90
2017-12-16T03:00:11.900Z,86.40
2017-12-16T03:02:45.689Z,87.00
2017-12-16T03:05:19.488Z,87.10
2017-12-16T03:07:53.344Z,87.10
2017-12-16T03:10:27.097Z,86.90
2017-12-16T03:13:00.926Z,86.80
2017-12-16T03:15:34.752Z,86.10
2017-12-16T03:18:08.460Z,85.10
2017-12-16T03:20:42.945Z,86.20
2017-12-16T03:23:17.026Z,86.20
2017-12-16T03:25:50.628Z,86.00
2017-12-16T03:28:24.418Z,86.50
2017-12-16T03:31:05.305Z,86.50
2017-12-16T03:33:39.237Z,85.90
2017-12-16T03:36:13.656Z,85.40
2017-12-16T03:38:47.506Z,85.40
2017-12-16T03:41:21.318Z,85.60
2017-12-16T03:43:55.312Z,85.40
2017-12-16T03:46:30.016Z,86.00
2017-12-16T03:49:03.959Z,86.00
2017-12-16T03:51:37.725Z,86.10
2017-12-16T03:54:11.557Z,86.00
2017-12-16T03:56:46.061Z,86.10
2017-12-16T03:59:19.756Z,86.10
2017-12-16T04:01:54.289Z,85.50
2017-12-16T04:04:28.420Z,85.50
2017-12-16T04:07:02.129Z,85.90
2017-12-16T04:09:36.743Z,86.10
2017-12-16T04:12:10.459Z,86.10
2017-12-16T04:14:44.360Z,86.20
2017-12-16T04:17:18.178Z,86.50
2017-12-16T04:19:53.052Z,86.70
2017-12-16T04:22:27.498Z,86.80
2017-12-16T04:25:01.533Z,86.80
2017-12-16T04:27:36.087Z,86.30
2017-12-16T04:30:10.884Z,86.80
2017-12-16T04:32:44.656Z,86.70
2017-12-16T04:35:18.482Z,86.50
2017-12-16T04:37:52.236Z,86.50
2017-12-16T04:40:26.067Z,86.70
2017-12-16T04:43:00.844Z,86.70
2017-12-16T04:45:35.226Z,86.80
2017-12-16T04:48:09.056Z,86.80
2017-12-16T04:50:42.781Z,86.40
2017-12-16T04:53:17.301Z,85.60
2017-12-16T04:55:50.915Z,85.60
2017-12-16T04:58:42.486Z,85.30
2017-12-16T05:01:16.212Z,85.30
2017-12-16T05:03:50.005Z,85.40
2017-12-16T05:06:23.666Z,85.40
2017-12-16T05:08:57.641Z,85.80
2017-12-16T05:11:31.449Z,86.00
2017-12-16T05:14:05.296Z,85.70
2017-12-16T05:16:40.077Z,85.30
2017-12-16T05:19:13.878Z,85.70
2017-12-16T05:21:47.690Z,85.90
2017-12-16T05:24:21.474Z,86.80
2017-12-16T05:26:55.127Z,87.50
2017-12-16T05:29:29.943Z,87.80
2017-12-16T05:32:04.438Z,87.50
2017-12-16T05:34:38.288Z,87.50
2017-12-16T05:37:13.437Z,89.30
2017-12-16T05:39:47.179Z,89.20
2017-12-16T05:42:20.865Z,88.90
2017-12-16T05:44:55.520Z,89.80
2017-12-16T05:47:29.322Z,89.80
2017-12-16T05:50:03.264Z,90.10
2017-12-16T05:52:37.965Z,90.20
2017-12-16T05:55:12.461Z,90.60
2017-12-16T05:57:46.232Z,90.60
2017-12-16T06:00:19.965Z,90.70
2017-12-16T06:02:53.682Z,90.60
2017-12-16T06:05:27.493Z,90.50
2017-12-16T06:08:01.231Z,90.40
2017-12-16T06:10:34.884Z,90.60
2017-12-16T06:13:08.658Z,90.60
2017-12-16T06:15:43.130Z,90.80
2017-12-16T06:18:16.857Z,90.80
2017-12-16T06:20:50.645Z,90.70
2017-12-16T06:23:25.159Z,90.90
2017-12-16T06:25:58.866Z,90.90
2017-12-16T06:28:32.620Z,91.00
2017-12-16T06:31:06.412Z,90.80
2017-12-16T06:33:40.333Z,91.00
2017-12-16T06:36:14.006Z,90.90
2017-12-16T06:38:47.794Z,90.70
2017-12-16T06:41:22.239Z,90.60
2017-12-16T06:43:56.049Z,90.60
2017-12-16T06:46:29.650Z,90.70
2017-12-16T06:49:03.510Z,90.90
2017-12-16T06:51:37.220Z,91.00
2017-12-16T06:54:11.073Z,91.10
2017-12-16T06:56:44.837Z,91.00
2017-12-16T06:59:18.874Z,90.90
2017-12-16T07:01:52.726Z,91.10
2017-12-16T07:04:26.472Z,91.30
2017-12-16T07:07:00.258Z,91.40
2017-12-16T07:09:34.078Z,91.10
2017-12-16T07:12:07.849Z,91.10
2017-12-16T07:14:42.629Z,91.50
2017-12-16T07:17:16.404Z,91.80
2017-12-16T07:19:50.090Z,91.90
2017-12-16T07:22:23.868Z,92.00
2017-12-16T07:24:57.589Z,92.00
2017-12-16T07:27:31.362Z,92.00
2017-12-16T07:30:05.861Z,92.20
2017-12-16T07:32:39.706Z,92.20
2017-12-16T07:35:13.509Z,91.90
2017-12-16T07:37:48.108Z,92.40
2017-12-16T07:40:21.725Z,92.10
2017-12-16T07:42:55.831Z,92.30
2017-12-16T07:45:29.611Z,92.30
2017-12-16T07:48:03.513Z,92.20
2017-12-16T07:50:37.289Z,91.90
2017-12-16T07:53:11.058Z,92.20
2017-12-16T07:55:44.846Z,92.40
2017-12-16T07:58:18.553Z,92.50
2017-12-16T08:00:52.968Z,92.70
2017-12-16T08:03:26.668Z,92.70
2017-12-16T08:06:01.249Z,92.30
2017-12-16T08:08:36.096Z,92.30
2017-12-16T08:11:10.784Z,92.70
2017-12-16T08:13:44.663Z,92.70
2017-12-16T08:16:18.398Z,92.40
2017-12-16T08:19:10.992Z,92.60
2017-12-16T08:21:45.492Z,92.90
2017-12-16T08:24:19.312Z,92.80
2017-12-16T08:26:53.931Z,92.30
2017-12-16T08:29:27.643Z,92.20
2017-12-16T08:32:04.515Z,92.10
2017-12-16T08:34:38.330Z,92.10
2017-12-16T08:37:12.801Z,92.10
2017-12-16T08:39:46.685Z,92.10
2017-12-16T08:42:20.454Z,92.00
2017-12-16T08:44:54.205Z,92.20
2017-12-16T08:47:27.934Z,92.30
2017-12-16T08:50:01.666Z,92.40
2017-12-16T08:52:35.429Z,92.30
2017-12-16T08:55:09.145Z,92.30
2017-12-16T08:57:43.069Z,92.40
2017-12-16T09:00:16.736Z,92.00
2017-12-16T09:02:51.309Z,92.00
2017-12-16T09:05:26.380Z,91.90
2017-12-16T09:08:00.266Z,92.00
2017-12-16T09:10:34.025Z,92.10
2017-12-16T09:13:07.815Z,91.80
2017-12-16T09:15:42.275Z,91.90
2017-12-16T09:18:15.986Z,91.90
2017-12-16T09:20:49.744Z,91.70
2017-12-16T09:23:24.320Z,91.90
2017-12-16T09:25:58.016Z,91.90
2017-12-16T09:28:32.033Z,91.80
2017-12-16T09:31:06.838Z,91.80
2017-12-16T09:33:40.577Z,91.30
2017-12-16T09:36:14.685Z,91.10
2017-12-16T09:38:50.542Z,91.10
2017-12-16T09:41:25.322Z,91.30
2017-12-16T09:43:58.944Z,91.30
2017-12-16T09:46:32.695Z,90.90
2017-12-16T09:49:06.515Z,91.30
2017-12-16T09:51:40.270Z,91.20
2017-12-16T09:54:14.120Z,91.10
2017-12-16T09:56:47.857Z,91.20
2017-12-16T09:59:22.518Z,91.10
2017-12-16T10:01:57.104Z,90.90
2017-12-16T10:04:31.755Z,91.50
2017-12-16T10:07:05.790Z,91.30
2017-12-16T10:09:39.578Z,91.30
2017-12-16T10:12:13.401Z,91.30
2017-12-16T10:14:47.199Z,91.20
2017-12-16T10:17:21.691Z,90.90
2017-12-16T10:19:56.344Z,90.90
2017-12-16T10:22:31.145Z,90.80
2017-12-16T10:25:05.714Z,91.20
2017-12-16T10:27:40.277Z,91.50
2017-12-16T10:30:14.164Z,91.30
2017-12-16T10:32:48.716Z,91.40
2017-12-16T10:35:22.451Z,91.40
2017-12-16T10:37:56.280Z,91.10
2017-12-16T10:40:30.102Z,90.80
2017-12-16T10:43:03.808Z,91.30
2017-12-16T10:45:37.647Z,91.70
2017-12-16T10:48:11.481Z,91.70
2017-12-16T10:50:45.303Z,91.40
2017-12-16T10:53:19.148Z,91.10
2017-12-16T10:55:52.861Z,91.50
2017-12-16T10:58:26.621Z,91.40
2017-12-16T11:01:00.452Z,91.20
2017-12-16T11:03:35.140Z,91.20
2017-12-16T11:06:08.926Z,91.20
2017-12-16T11:08:43.481Z,91.20
2017-12-16T11:11:17.341Z,91.20
2017-12-16T11:13:52.079Z,91.30
2017-12-16T11:16:25.827Z,91.20
2017-12-16T11:19:00.375Z,90.50
2017-12-16T11:21:34.976Z,90.70
2017-12-16T11:24:09.568Z,90.90
2017-12-16T11:26:44.221Z,90.90
2017-12-16T11:29:18.797Z,90.50
2017-12-16T11:31:52.611Z,90.50
2017-12-16T11:34:26.488Z,90.00
2017-12-16T11:37:00.285Z,90.20
2017-12-16T11:39:34.045Z,90.30
2017-12-16T11:42:07.941Z,89.80
2017-12-16T11:44:42.356Z,89.20
2017-12-16T11:47:16.264Z,89.20
2017-12-16T11:49:50.880Z,88.90
2017-12-16T11:52:24.937Z,88.50
2017-12-16T11:54:58.744Z,87.20
2017-12-16T11:57:33.273Z,87.30
2017-12-16T12:00:07.868Z,87.60
2017-12-16T12:02:42.628Z,87.80
2017-12-16T12:05:16.332Z,87.80
2017-12-16T12:07:50.198Z,87.70
2017-12-16T12:10:23.937Z,88.10
2017-12-16T12:13:00.481Z,88.60
2017-12-16T12:15:34.258Z,88.60
2017-12-16T12:18:08.803Z,85.60
2017-12-16T12:20:42.642Z,85.60
2017-12-16T12:23:16.527Z,87.60
2017-12-16T12:25:51.165Z,87.40
2017-12-16T12:28:24.933Z,87.40
2017-12-16T12:30:58.685Z,85.50
2017-12-16T12:33:32.529Z,85.90
2017-12-16T12:36:06.255Z,86.10
2017-12-16T12:38:40.073Z,86.90
2017-12-16T12:41:13.846Z,85.50
2017-12-16T12:43:47.619Z,84.40
2017-12-16T12:46:21.401Z,84.80
2017-12-16T12:48:55.159Z,84.80
2017-12-16T12:51:28.883Z,85.90
2017-12-16T12:54:02.796Z,84.70
2017-12-16T12:56:36.564Z,84.00
2017-12-16T12:59:11.340Z,84.40
2017-12-16T13:01:45.150Z,84.30
2017-12-16T13:04:19.752Z,82.20
2017-12-16T13:06:53.669Z,82.20
2017-12-16T13:09:28.717Z,82.80
2017-12-16T13:12:02.522Z,82.70
2017-12-16T13:14:36.351Z,81.90
2017-12-16T13:17:10.859Z,80.30
2017-12-16T13:19:44.633Z,80.30
2017-12-16T13:22:19.289Z,82.70
2017-12-16T13:24:53.873Z,81.90
2017-12-16T13:27:27.729Z,81.80
2017-12-16T13:30:01.769Z,80.30
2017-12-16T13:32:36.328Z,79.80
2017-12-16T13:35:10.101Z,79.70
2017-12-16T13:37:45.399Z,79.80
2017-12-16T13:40:19.121Z,79.80
2017-12-16T13:42:52.782Z,80.20
2017-12-16T13:45:26.652Z,79.50
2017-12-16T13:48:01.152Z,80.20
2017-12-16T13:50:35.060Z,80.10
2017-12-16T13:53:09.716Z,78.90
2017-12-16T13:55:43.804Z,78.90
2017-12-16T13:58:17.660Z,78.70
2017-12-16T14:00:52.162Z,79.30
2017-12-16T14:03:25.782Z,79.30
2017-12-16T14:05:59.636Z,80.00
2017-12-16T14:08:33.352Z,79.00
2017-12-16T14:11:07.057Z,79.30
2017-12-16T14:13:40.942Z,79.00
2017-12-16T14:16:15.649Z,77.60
2017-12-16T14:18:49.594Z,77.80
2017-12-16T14:21:23.308Z,78.50
2017-12-16T14:23:57.160Z,78.80
2017-12-16T14:26:30.851Z,78.60
2017-12-16T14:29:05.464Z,79.50
2017-12-16T14:31:39.240Z,79.50
2017-12-16T14:34:13.298Z,80.30
2017-12-16T14:36:47.957Z,81.50
2017-12-16T14:39:22.080Z,81.50
2017-12-16T14:41:55.827Z,81.00
2017-12-16T14:44:29.895Z,80.60
2017-12-16T14:47:04.837Z,80.90
2017-12-16T14:49:39.520Z,80.90
2017-12-16T14:52:13.392Z,80.90
2017-12-16T14:54:47.186Z,81.20
2017-12-16T14:57:20.969Z,81.80
2017-12-16T14:59:54.943Z,82.10
2017-12-16T15:02:29.047Z,83.00
2017-12-16T15:05:02.895Z,83.10
2017-12-16T15:07:36.816Z,83.50
2017-12-16T15:10:11.889Z,83.60
2017-12-16T15:12:46.104Z,84.70
2017-12-16T15:15:20.061Z,83.90
2017-12-16T15:17:53.927Z,86.20
2017-12-16T15:20:28.079Z,88.10
2017-12-16T15:23:02.605Z,89.30
2017-12-16T15:25:36.484Z,90.10
2017-12-16T15:28:10.363Z,90.50
2017-12-16T15:30:45.037Z,90.70
2017-12-16T15:33:18.938Z,91.30
2017-12-16T15:35:52.818Z,91.10
2017-12-16T15:38:27.519Z,91.50
2017-12-16T15:41:01.458Z,91.50
2017-12-16T15:43:36.529Z,91.80
2017-12-16T15:46:10.283Z,91.70
2017-12-16T15:48:44.950Z,91.90
2017-12-16T15:51:19.041Z,91.60
2017-12-16T15:53:52.813Z,91.60
2017-12-16T15:56:26.610Z,91.70
2017-12-16T15:59:00.417Z,91.70
2017-12-16T16:01:35.619Z,91.70
2017-12-16T16:04:09.402Z,91.70
2017-12-16T16:06:44.022Z,91.50
2017-12-16T16:09:18.131Z,91.50
2017-12-16T16:11:52.945Z,91.20
2017-12-16T16:14:27.791Z,91.50
2017-12-16T16:17:01.908Z,91.20
2017-12-16T16:19:38.109Z,91.60
2017-12-16T16:22:11.903Z,91.30
2017-12-16T16:24:46.638Z,90.80
2017-12-16T16:27:20.894Z,90.80
2017-12-16T16:29:54.774Z,90.40
2017-12-16T16:32:29.437Z,90.30
2017-12-16T16:35:04.317Z,90.20
2017-12-16T16:37:38.340Z,90.60
2017-12-16T16:40:14.053Z,90.40
2017-12-16T16:42:47.997Z,90.40
2017-12-16T16:45:22.619Z,90.30
2017-12-16T16:47:57.553Z,90.40
2017-12-16T16:50:31.463Z,90.40
2017-12-16T16:53:05.263Z,90.30
2017-12-16T16:55:39.016Z,90.20
2017-12-16T16:58:12.883Z,90.00
2017-12-16T17:00:46.698Z,90.00
2017-12-16T17:03:20.507Z,89.30
2017-12-16T17:05:54.412Z,90.20
2017-12-16T17:08:28.229Z,90.30
2017-12-16T17:11:02.132Z,90.60
2017-12-16T17:13:35.826Z,90.40
2017-12-16T17:16:09.607Z,90.10
2017-12-16T17:18:43.248Z,90.00
2017-12-16T17:21:17.054Z,89.60
2017-12-16T17:23:50.895Z,89.90
2017-12-16T17:26:24.726Z,89.50
2017-12-16T17:28:58.568Z,89.60
2017-12-16T17:31:32.428Z,89.50
2017-12-16T17:34:06.309Z,89.60
2017-12-16T17:36:40.391Z,89.40
2017-12-16T17:39:14.267Z,89.70
2017-12-16T17:41:48.113Z,89.90
2017-12-16T17:44:21.904Z,89.50
2017-12-16T17:46:56.544Z,89.30
2017-12-16T17:49:30.531Z,89.30
2017-12-16T17:52:04.286Z,89.10
2017-12-16T17:54:38.809Z,88.30
2017-12-16T17:57:12.634Z,88.30
2017-12-16T17:59:46.463Z,88.20
2017-12-16T18:02:20.192Z,89.20
2017-12-16T18:04:54.109Z,88.10
2017-12-16T18:07:28.580Z,88.10
2017-12-16T18:10:03.127Z,87.80
2017-12-16T18:12:37.090Z,87.80
2017-12-16T18:15:11.566Z,88.00
2017-12-16T18:17:45.419Z,88.00
2017-12-16T18:20:19.132Z,87.50
2017-12-16T18:22:52.887Z,87.20
2017-12-16T18:25:26.679Z,87.90
2017-12-16T18:28:00.684Z,87.90
2017-12-16T18:30:34.982Z,88.10
2017-12-16T18:33:08.673Z,88.10
2017-12-16T18:35:42.514Z,87.80
2017-12-16T18:38:16.238Z,86.90
2017-12-16T18:40:51.268Z,87.50
2017-12-16T18:43:24.999Z,87.20
2017-12-16T18:45:58.896Z,87.10
2017-12-16T18:48:33.416Z,87.00
2017-12-16T18:51:07.274Z,87.40
2017-12-16T18:53:41.033Z,86.60
2017-12-16T18:56:14.842Z,87.40
2017-12-16T18:58:49.588Z,87.30
2017-12-16T19:01:24.352Z,88.20
2017-12-16T19:03:57.969Z,88.00
2017-12-16T19:06:31.846Z,86.70
2017-12-16T19:09:06.460Z,88.90
2017-12-16T19:11:40.145Z,88.10
2017-12-16T19:14:13.882Z,87.10
2017-12-16T19:16:47.777Z,87.10
2017-12-16T19:19:21.522Z,87.40
2017-12-16T19:21:55.303Z,87.30
2017-12-16T19:24:29.152Z,86.50
2017-12-16T19:27:03.639Z,87.00
2017-12-16T19:29:38.220Z,87.10
2017-12-16T19:32:12.131Z,87.10
2017-12-16T19:34:49.222Z,86.50
2017-12-16T19:37:23.167Z,86.80
2017-12-16T19:39:57.775Z,86.70
2017-12-16T19:42:31.715Z,86.60
2017-12-16T19:45:06.365Z,86.70
2017-12-16T19:47:40.231Z,86.70
2017-12-16T19:50:13.981Z,86.50
2017-12-16T19:52:47.704Z,86.90
2017-12-16T19:55:21.619Z,86.80
2017-12-16T19:57:55.371Z,86.80
2017-12-16T20:00:29.889Z,87.20
2017-12-16T20:03:03.768Z,87.20
2017-12-16T20:05:38.295Z,87.50
2017-12-16T20:08:12.187Z,87.40
2017-12-16T20:10:45.994Z,88.50
2017-12-16T20:13:19.822Z,87.70
2017-12-16T20:15:53.637Z,88.20
2017-12-16T20:18:27.578Z,87.80
2017-12-16T20:21:02.542Z,87.60
2017-12-16T20:23:36.354Z,87.80
2017-12-16T20:26:10.204Z,87.90
2017-12-16T20:28:44.168Z,88.20
2017-12-16T20:31:18.725Z,88.00
2017-12-16T20:33:56.198Z,88.00
2017-12-16T20:36:30.892Z,88.60
2017-12-16T20:39:05.447Z,88.70
2017-12-16T20:41:39.154Z,88.70
2017-12-16T20:44:13.000Z,88.50
2017-12-16T20:46:46.823Z,88.60
2017-12-16T20:49:28.155Z,88.60
2017-12-16T20:52:01.944Z,88.80
2017-12-16T20:54:36.492Z,88.80
2017-12-16T20:57:10.963Z,88.80
2017-12-16T20:59:44.921Z,88.70
2017-12-16T21:02:18.780Z,88.80
2017-12-16T21:04:57.488Z,89.00
2017-12-16T21:07:32.083Z,89.20
2017-12-16T21:10:05.968Z,89.20
2017-12-16T21:12:40.658Z,89.10
2017-12-16T21:15:15.376Z,89.20
2017-12-16T21:17:49.161Z,89.20
2017-12-16T21:20:22.975Z,89.30
2017-12-16T21:22:56.923Z,89.00
2017-12-16T21:25:30.764Z,89.00
2017-12-16T21:28:04.632Z,89.20
2017-12-16T21:30:39.336Z,88.60
2017-12-16T21:33:13.104Z,88.60
2017-12-16T21:35:47.096Z,88.60
2017-12-16T21:38:21.735Z,88.70
2017-12-16T21:40:55.778Z,88.80
2017-12-16T21:43:29.471Z,89.00
2017-12-16T21:46:03.291Z,88.80
2017-12-16T21:48:37.962Z,88.90
2017-12-16T21:51:11.915Z,88.80
2017-12-16T21:53:45.784Z,88.50
2017-12-16T21:56:20.427Z,88.60
2017-12-16T21:58:54.450Z,88.50
2017-12-16T22:01:28.965Z,88.40
2017-12-16T22:04:02.937Z,88.20
2017-12-16T22:06:37.537Z,88.80
2017-12-16T22:09:11.331Z,88.80
2017-12-16T22:11:45.245Z,87.90
2017-12-16T22:14:19.822Z,88.00
2017-12-16T22:16:53.640Z,88.00
2017-12-16T22:19:27.532Z,88.10
2017-12-16T22:22:01.451Z,88.10
2017-12-16T22:24:36.071Z,88.30
2017-12-16T22:27:10.162Z,88.30
2017-12-16T22:29:44.049Z,87.70
2017-12-16T22:32:18.618Z,88.00
2017-12-16T22:34:52.372Z,88.00
2017-12-16T22:37:26.123Z,88.10
2017-12-16T22:39:59.956Z,88.20
2017-12-16T22:42:33.688Z,87.80
2017-12-16T22:45:07.807Z,88.00
2017-12-16T22:47:41.636Z,88.40
2017-12-16T22:50:15.520Z,88.30
2017-12-16T22:52:50.063Z,88.20
2017-12-16T22:55:23.875Z,88.00
2017-12-16T22:57:57.799Z,88.10
2017-12-16T23:00:31.562Z,87.80
2017-12-16T23:03:05.305Z,87.50
2017-12-16T23:05:44.759Z,87.80
2017-12-16T23:08:18.497Z,87.80
2017-12-16T23:10:52.339Z,87.60
2017-12-16T23:13:26.549Z,87.60
2017-12-16T23:16:00.290Z,87.50
2017-12-16T23:18:34.089Z,87.10
2017-12-16T23:21:08.385Z,87.50
2017-12-16T23:23:42.276Z,87.30
2017-12-16T23:26:20.316Z,87.50
2017-12-16T23:28:54.194Z,87.50
2017-12-16T23:31:27.991Z,87.50
2017-12-16T23:34:01.854Z,87.60
2017-12-16T23:36:36.436Z,87.40
2017-12-16T23:39:11.027Z,86.90
2017-12-16T23:41:44.911Z,86.90
2017-12-16T23:44:18.926Z,87.00
2017-12-16T23:46:52.811Z,87.20
2017-12-16T23:49:27.416Z,86.80
2017-12-16T23:52:01.318Z,86.80
2017-12-16T23:54:35.950Z,87.30
2017-12-16T23:57:09.800Z,87.30
2017-12-16T23:59:43.576Z,87.40
